createdAt,value
2023-04-07T00:01:49.433Z,10.57
2023-04-07T00:04:17.670Z,10.58
2023-04-07T00:06:45.946Z,10.55
2023-04-07T00:09:13.983Z,10.58
2023-04-07T00:11:42.048Z,10.58
2023-04-07T00:14:10.340Z,10.54
2023-04-07T00:16:39.912Z,10.58
2023-04-07T00:19:08.089Z,10.57
2023-04-07T00:21:36.151Z,10.52
2023-04-07T00:24:04.365Z,10.49
2023-04-07T00:26:32.996Z,10.50
2023-04-07T00:29:01.447Z,10.55
2023-04-07T00:31:29.557Z,10.53
2023-04-07T00:33:58.898Z,10.55
2023-04-07T00:36:28.727Z,10.60
2023-04-07T00:38:56.798Z,10.58
2023-04-07T00:41:24.846Z,10.56
2023-04-07T00:43:53.213Z,10.48
2023-04-07T00:46:24.634Z,10.46
2023-04-07T00:48:52.793Z,10.46
2023-04-07T00:51:22.913Z,10.50
2023-04-07T00:53:51.222Z,10.50
2023-04-07T00:56:19.315Z,10.49
2023-04-07T00:58:47.464Z,10.42
2023-04-07T01:01:24.100Z,10.41
2023-04-07T01:04:02.621Z,10.43
2023-04-07T01:06:39.261Z,10.46
2023-04-07T01:09:19.190Z,10.48
2023-04-07T01:12:00.656Z,10.47
2023-04-07T01:14:38.537Z,10.52
2023-04-07T01:17:24.564Z,10.50
2023-04-07T01:20:00.240Z,10.50
2023-04-07T01:22:42.947Z,10.42
2023-04-07T01:25:36.494Z,10.45
2023-04-07T01:28:31.466Z,10.41
2023-04-07T01:31:02.755Z,10.42
2023-04-07T01:33:34.960Z,10.36
2023-04-07T01:36:06.200Z,10.36
2023-04-07T01:38:41.164Z,10.40
2023-04-07T01:41:11.121Z,10.43
2023-04-07T01:43:41.398Z,10.44
2023-04-07T01:46:11.214Z,10.28
2023-04-07T01:48:41.225Z,10.33
2023-04-07T01:51:11.924Z,10.29
2023-04-07T01:53:40.267Z,10.31
2023-04-07T01:56:08.981Z,10.28
2023-04-07T01:58:38.818Z,10.27
2023-04-07T02:01:11.196Z,10.36
2023-04-07T02:03:50.516Z,10.31
2023-04-07T02:06:24.255Z,10.31
2023-04-07T02:09:00.355Z,10.34
2023-04-07T02:11:30.353Z,10.36
2023-04-07T02:14:05.080Z,10.35
2023-04-07T02:16:42.328Z,10.42
2023-04-07T02:19:10.951Z,10.40
2023-04-07T02:24:13.517Z,10.43
2023-04-07T02:26:44.259Z,10.39
2023-04-07T02:29:12.437Z,10.44
2023-04-07T02:31:42.004Z,10.33
2023-04-07T02:34:10.171Z,10.29
2023-04-07T02:36:39.656Z,10.41
2023-04-07T02:39:10.426Z,10.41
2023-04-07T02:41:38.503Z,10.36
2023-04-07T02:44:06.815Z,10.39
2023-04-07T02:46:35.205Z,10.36
2023-04-07T02:49:04.778Z,10.43
2023-04-07T02:51:32.851Z,10.42
2023-04-07T02:54:01.577Z,10.43
2023-04-07T02:56:29.797Z,10.48
2023-04-07T02:58:57.944Z,10.46
2023-04-07T03:01:27.927Z,10.42
2023-04-07T03:03:56.743Z,10.51
2023-04-07T03:06:28.181Z,10.47
2023-04-07T03:09:05.445Z,10.46
2023-04-07T03:11:34.562Z,10.49
2023-04-07T03:14:02.701Z,10.46
2023-04-07T03:16:32.370Z,10.48
2023-04-07T03:19:08.936Z,10.48
2023-04-07T03:21:42.497Z,10.41
2023-04-07T03:24:11.046Z,10.36
2023-04-07T03:26:39.196Z,10.41
2023-04-07T03:29:14.198Z,10.40
2023-04-07T03:31:43.986Z,10.35
2023-04-07T03:34:14.625Z,10.40
2023-04-07T03:36:44.153Z,10.36
2023-04-07T03:39:12.761Z,10.32
2023-04-07T03:41:41.010Z,10.37
2023-04-07T03:44:09.102Z,10.44
2023-04-07T03:46:39.118Z,10.40
2023-04-07T03:49:07.554Z,10.40
2023-04-07T03:51:35.869Z,10.33
2023-04-07T03:54:09.552Z,10.40
2023-04-07T03:56:41.609Z,10.34
2023-04-07T03:59:10.011Z,10.37
2023-04-07T04:01:45.133Z,10.38
2023-04-07T04:04:16.902Z,10.37
2023-04-07T04:06:45.676Z,10.35
2023-04-07T04:09:27.724Z,10.38
2023-04-07T04:11:56.374Z,10.34
2023-04-07T04:14:25.613Z,10.38
2023-04-07T04:16:58.565Z,10.40
2023-04-07T04:19:31.719Z,10.38
2023-04-07T04:22:03.383Z,10.34
2023-04-07T04:24:37.865Z,10.33
2023-04-07T04:27:06.292Z,10.37
2023-04-07T04:29:34.793Z,10.30
2023-04-07T04:32:04.855Z,10.26
2023-04-07T04:34:33.048Z,10.31
2023-04-07T04:37:01.587Z,10.34
2023-04-07T04:39:29.801Z,10.38
2023-04-07T04:42:01.277Z,10.43
2023-04-07T04:44:34.829Z,10.44
2023-04-07T04:47:05.126Z,10.42
2023-04-07T04:49:33.812Z,10.36
2023-04-07T04:52:05.162Z,10.35
2023-04-07T04:54:39.890Z,10.32
2023-04-07T04:57:10.020Z,10.27
2023-04-07T04:59:40.058Z,10.27
2023-04-07T05:02:08.287Z,10.32
2023-04-07T05:04:36.828Z,10.30
2023-04-07T05:07:22.896Z,10.30
2023-04-07T05:09:51.225Z,10.32
2023-04-07T05:12:22.892Z,10.35
2023-04-07T05:14:57.524Z,10.42
2023-04-07T05:17:25.794Z,10.33
2023-04-07T05:19:54.362Z,10.36
2023-04-07T05:22:33.881Z,10.40
2023-04-07T05:25:07.855Z,10.45
2023-04-07T05:27:37.374Z,10.42
2023-04-07T05:30:13.153Z,10.35
2023-04-07T05:32:41.533Z,10.40
2023-04-07T05:35:18.884Z,10.45
2023-04-07T05:37:52.867Z,10.48
2023-04-07T05:40:21.172Z,10.50
2023-04-07T05:42:51.202Z,10.46
2023-04-07T05:45:19.694Z,10.38
2023-04-07T05:47:51.298Z,10.41
2023-04-07T05:50:25.846Z,10.43
2023-04-07T05:52:54.087Z,10.41
2023-04-07T05:55:28.218Z,10.42
2023-04-07T05:57:58.871Z,10.46
2023-04-07T06:00:30.433Z,10.50
2023-04-07T06:03:08.030Z,10.53
2023-04-07T06:05:47.402Z,10.49
2023-04-07T06:08:15.836Z,10.54
2023-04-07T06:10:44.277Z,10.54
2023-04-07T06:13:14.477Z,10.48
2023-04-07T06:15:43.668Z,10.46
2023-04-07T06:18:11.831Z,10.53
2023-04-07T06:20:42.277Z,10.47
2023-04-07T06:23:11.492Z,10.44
2023-04-07T06:25:41.120Z,10.49
2023-04-07T06:28:09.331Z,10.60
2023-04-07T06:30:38.910Z,10.60
2023-04-07T06:33:10.495Z,10.62
2023-04-07T06:35:41.313Z,10.88
2023-04-07T06:38:11.504Z,11.18
2023-04-07T06:40:39.770Z,11.45
2023-04-07T06:43:08.170Z,11.67
2023-04-07T06:45:45.599Z,11.89
2023-04-07T06:48:13.750Z,12.08
2023-04-07T06:50:42.768Z,12.21
2023-04-07T06:53:11.442Z,12.34
2023-04-07T06:55:40.167Z,12.35
2023-04-07T06:58:08.996Z,12.45
2023-04-07T07:00:39.807Z,12.60
2023-04-07T07:03:09.649Z,12.68
2023-04-07T07:05:38.171Z,12.66
2023-04-07T07:08:06.712Z,12.64
2023-04-07T07:10:35.228Z,12.64
2023-04-07T07:13:03.658Z,12.58
2023-04-07T07:15:32.466Z,12.57
2023-04-07T07:18:00.639Z,12.48
2023-04-07T07:20:30.558Z,12.46
2023-04-07T07:22:59.775Z,12.43
2023-04-07T07:25:27.924Z,12.45
2023-04-07T07:27:56.185Z,12.46
2023-04-07T07:30:26.156Z,12.47
2023-04-07T07:32:56.312Z,12.27
2023-04-07T07:35:25.394Z,12.35
2023-04-07T07:37:55.119Z,12.46
2023-04-07T07:40:23.516Z,12.51
2023-04-07T07:42:51.711Z,12.63
2023-04-07T07:45:20.535Z,12.68
2023-04-07T07:47:48.781Z,12.64
2023-04-07T07:50:16.976Z,12.68
2023-04-07T07:52:45.876Z,12.66
2023-04-07T07:55:15.476Z,12.73
2023-04-07T07:57:43.782Z,12.76
2023-04-07T08:00:13.528Z,12.75
2023-04-07T08:02:42.031Z,12.74
2023-04-07T08:05:11.366Z,12.75
2023-04-07T08:07:39.809Z,12.70
2023-04-07T08:10:09.267Z,12.55
2023-04-07T08:12:39.664Z,12.56
2023-04-07T08:15:09.834Z,12.60
2023-04-07T08:17:38.307Z,12.72
2023-04-07T08:20:08.423Z,12.90
2023-04-07T08:22:36.587Z,13.07
2023-04-07T08:25:05.374Z,13.10
2023-04-07T08:27:35.631Z,13.02
2023-04-07T08:30:07.491Z,13.27
2023-04-07T08:33:00.790Z,13.34
2023-04-07T08:35:29.830Z,13.23
2023-04-07T08:37:58.021Z,13.29
2023-04-07T08:40:26.351Z,13.52
2023-04-07T08:42:54.633Z,13.76
2023-04-07T08:45:25.614Z,13.96
2023-04-07T08:47:57.917Z,14.07
2023-04-07T08:50:28.329Z,14.01
2023-04-07T08:52:57.979Z,13.95
2023-04-07T08:55:26.886Z,13.97
2023-04-07T08:57:56.319Z,14.03
2023-04-07T09:00:26.212Z,14.14
2023-04-07T09:02:54.715Z,14.19
2023-04-07T09:05:25.108Z,14.22
2023-04-07T09:07:53.362Z,14.20
2023-04-07T09:10:22.186Z,14.18
2023-04-07T09:12:50.934Z,14.16
2023-04-07T09:15:19.243Z,14.10
2023-04-07T09:17:49.135Z,14.11
2023-04-07T09:20:17.470Z,14.05
2023-04-07T09:22:47.631Z,14.00
2023-04-07T09:25:19.267Z,13.95
2023-04-07T09:27:59.486Z,13.90
2023-04-07T09:30:28.394Z,13.88
2023-04-07T09:32:59.018Z,13.84
2023-04-07T09:35:28.362Z,13.90
2023-04-07T09:38:04.775Z,13.79
2023-04-07T09:40:33.392Z,13.81
2023-04-07T09:43:02.782Z,13.96
2023-04-07T09:45:35.703Z,13.99
2023-04-07T09:48:10.939Z,14.15
2023-04-07T09:50:45.859Z,14.18
2023-04-07T09:53:14.341Z,14.21
2023-04-07T09:55:43.434Z,14.43
2023-04-07T09:58:14.476Z,14.58
2023-04-07T10:00:43.307Z,14.74
2023-04-07T10:03:13.487Z,14.71
2023-04-07T10:05:42.651Z,14.31
2023-04-07T10:08:11.474Z,14.39
2023-04-07T10:10:43.841Z,14.23
2023-04-07T10:13:12.832Z,14.15
2023-04-07T10:15:41.906Z,14.05
2023-04-07T10:18:12.836Z,13.84
2023-04-07T10:20:42.640Z,14.04
2023-04-07T10:23:18.956Z,14.22
2023-04-07T10:25:51.142Z,14.28
2023-04-07T10:28:21.339Z,14.31
2023-04-07T10:30:53.029Z,14.29
2023-04-07T10:33:47.453Z,14.28
2023-04-07T10:36:16.761Z,14.21
2023-04-07T10:39:24.100Z,14.23
2023-04-07T10:41:53.635Z,14.25
2023-04-07T10:44:49.749Z,14.28
2023-04-07T10:47:18.496Z,14.26
2023-04-07T10:50:22.835Z,14.22
2023-04-07T10:53:08.264Z,14.19
2023-04-07T10:55:39.407Z,14.20
2023-04-07T10:58:24.592Z,14.19
2023-04-07T11:01:23.245Z,14.17
2023-04-07T11:04:01.601Z,14.16
2023-04-07T11:06:31.731Z,14.15
2023-04-07T11:09:00.134Z,14.16
2023-04-07T11:11:42.979Z,14.16
2023-04-07T11:14:12.550Z,14.20
2023-04-07T11:16:45.036Z,14.19
2023-04-07T11:19:13.480Z,14.13
2023-04-07T11:21:45.341Z,13.92
2023-04-07T11:24:33.355Z,13.93
2023-04-07T11:27:02.154Z,13.96
2023-04-07T11:29:30.667Z,14.04
2023-04-07T11:32:01.149Z,14.11
2023-04-07T11:34:32.108Z,14.01
2023-04-07T11:37:21.008Z,13.90
2023-04-07T11:39:54.219Z,13.44
2023-04-07T11:42:34.040Z,13.07
2023-04-07T11:45:02.279Z,12.90
2023-04-07T11:47:37.368Z,13.03
2023-04-07T11:50:06.420Z,13.02
2023-04-07T11:52:43.960Z,13.11
2023-04-07T11:55:22.865Z,13.10
2023-04-07T11:57:52.234Z,12.78
2023-04-07T12:00:22.591Z,12.82
2023-04-07T12:02:51.496Z,12.82
2023-04-07T12:05:20.169Z,12.71
2023-04-07T12:07:57.703Z,12.78
2023-04-07T12:10:26.662Z,12.37
2023-04-07T12:12:55.276Z,12.09
2023-04-07T12:15:24.087Z,12.47
2023-04-07T12:17:55.630Z,12.63
2023-04-07T12:20:23.927Z,12.81
2023-04-07T12:22:52.681Z,13.04
2023-04-07T12:25:24.867Z,13.17
2023-04-07T12:27:53.563Z,13.08
2023-04-07T12:30:21.844Z,13.07
2023-04-07T12:32:50.096Z,13.19
2023-04-07T12:35:18.268Z,13.26
2023-04-07T12:37:49.042Z,13.21
2023-04-07T12:40:18.375Z,13.27
2023-04-07T12:42:48.132Z,13.32
2023-04-07T12:45:16.388Z,13.30
2023-04-07T12:47:46.134Z,13.29
2023-04-07T12:50:14.295Z,13.32
2023-04-07T12:52:43.075Z,13.19
2023-04-07T12:55:11.212Z,13.19
2023-04-07T12:57:39.351Z,13.17
2023-04-07T13:00:11.393Z,13.19
2023-04-07T13:02:39.809Z,13.16
2023-04-07T13:05:08.801Z,13.15
2023-04-07T13:07:37.872Z,13.15
2023-04-07T13:10:08.305Z,13.12
2023-04-07T13:12:36.638Z,13.03
2023-04-07T13:15:05.795Z,13.06
2023-04-07T13:17:36.895Z,12.88
2023-04-07T13:20:05.978Z,12.93
2023-04-07T13:22:35.822Z,12.96
2023-04-07T13:25:04.689Z,12.99
2023-04-07T13:27:32.944Z,13.06
2023-04-07T13:30:01.065Z,13.06
2023-04-07T13:32:29.285Z,13.10
2023-04-07T13:34:59.906Z,13.09
2023-04-07T13:37:28.426Z,13.12
2023-04-07T13:39:56.469Z,13.12
2023-04-07T13:42:24.623Z,13.18
2023-04-07T13:44:54.552Z,13.09
2023-04-07T13:47:22.781Z,13.07
2023-04-07T13:49:52.079Z,13.08
2023-04-07T13:52:21.826Z,13.14
2023-04-07T13:54:49.969Z,13.13
2023-04-07T13:57:20.850Z,13.07
2023-04-07T13:59:52.707Z,13.10
2023-04-07T14:02:21.625Z,13.13
2023-04-07T14:04:50.024Z,13.08
2023-04-07T14:07:18.344Z,13.08
2023-04-07T14:09:48.226Z,13.12
2023-04-07T14:12:16.482Z,13.11
2023-04-07T14:14:44.864Z,13.11
2023-04-07T14:17:12.953Z,13.14
2023-04-07T14:19:41.348Z,13.11
2023-04-07T14:22:09.651Z,13.13
2023-04-07T14:24:38.022Z,13.15
2023-04-07T14:27:07.542Z,13.12
2023-04-07T14:29:35.663Z,13.12
2023-04-07T14:32:03.782Z,13.12
2023-04-07T14:34:31.900Z,13.09
2023-04-07T14:37:00.009Z,13.02
2023-04-07T14:39:28.389Z,13.07
2023-04-07T14:41:56.565Z,13.15
2023-04-07T14:44:27.038Z,13.28
2023-04-07T14:46:55.688Z,13.44
2023-04-07T14:49:25.102Z,13.62
2023-04-07T14:51:53.646Z,13.76
2023-04-07T14:54:21.770Z,13.89
2023-04-07T14:56:50.669Z,14.02
2023-04-07T14:59:18.715Z,14.11
2023-04-07T15:01:48.391Z,14.18
2023-04-07T15:04:16.689Z,14.19
2023-04-07T15:06:46.203Z,14.26
2023-04-07T15:09:16.715Z,14.34
2023-04-07T15:11:46.001Z,14.38
2023-04-07T15:14:15.818Z,14.54
2023-04-07T15:16:44.340Z,14.55
2023-04-07T15:19:18.338Z,14.54
2023-04-07T15:21:46.428Z,14.61
2023-04-07T15:24:16.286Z,14.65
2023-04-07T15:26:44.950Z,14.67
2023-04-07T15:29:13.076Z,14.68
2023-04-07T15:31:41.233Z,14.62
2023-04-07T15:34:09.319Z,14.57
2023-04-07T15:36:39.348Z,14.60
2023-04-07T15:39:11.820Z,14.61
2023-04-07T15:41:39.983Z,14.66
2023-04-07T15:44:08.107Z,14.53
2023-04-07T15:46:36.250Z,14.50
2023-04-07T15:49:04.345Z,14.46
2023-04-07T15:51:32.452Z,14.48
2023-04-07T15:54:03.047Z,14.49
2023-04-07T15:56:31.392Z,14.48
2023-04-07T15:58:59.458Z,14.47
2023-04-07T16:01:27.626Z,14.49
2023-04-07T16:03:56.060Z,14.42
2023-04-07T16:06:24.386Z,14.48
2023-04-07T16:08:53.730Z,14.55
2023-04-07T16:11:23.120Z,14.63
2023-04-07T16:13:51.357Z,14.65
2023-04-07T16:16:19.948Z,14.67
2023-04-07T16:18:48.405Z,14.68
2023-04-07T16:21:16.649Z,14.70
2023-04-07T16:23:44.946Z,14.96
2023-04-07T16:26:13.671Z,14.73
2023-04-07T16:28:44.253Z,14.50
2023-04-07T16:31:12.498Z,14.29
2023-04-07T16:33:40.930Z,14.16
2023-04-07T16:36:09.352Z,14.14
2023-04-07T16:38:38.353Z,14.12
2023-04-07T16:41:08.994Z,14.13
2023-04-07T16:43:37.526Z,14.06
2023-04-07T16:46:08.615Z,13.98
2023-04-07T16:48:37.283Z,13.93
2023-04-07T16:51:08.276Z,13.92
2023-04-07T16:53:36.569Z,13.85
2023-04-07T16:56:05.527Z,13.77
2023-04-07T16:58:33.802Z,13.70
2023-04-07T17:01:02.397Z,13.61
2023-04-07T17:03:32.484Z,13.57
2023-04-07T17:06:05.532Z,13.49
2023-04-07T17:08:34.254Z,13.44
2023-04-07T17:11:07.074Z,13.39
2023-04-07T17:13:36.209Z,13.42
2023-04-07T17:16:05.659Z,13.39
2023-04-07T17:18:35.334Z,13.43
2023-04-07T17:21:03.736Z,13.35
2023-04-07T17:23:33.963Z,13.22
2023-04-07T17:26:02.176Z,13.10
2023-04-07T17:28:31.477Z,13.04
2023-04-07T17:30:59.746Z,13.04
2023-04-07T17:33:30.527Z,13.01
2023-04-07T17:36:03.742Z,12.97
2023-04-07T17:38:32.725Z,12.96
2023-04-07T17:41:02.913Z,12.88
2023-04-07T17:43:35.609Z,12.82
2023-04-07T17:46:04.790Z,12.76
2023-04-07T17:48:33.506Z,12.70
2023-04-07T17:51:03.430Z,12.72
2023-04-07T17:53:32.216Z,12.78
2023-04-07T17:56:00.930Z,12.69
2023-04-07T17:58:29.550Z,12.66
2023-04-07T18:00:57.954Z,12.60
2023-04-07T18:03:26.339Z,12.51
2023-04-07T18:05:54.938Z,12.44
2023-04-07T18:08:26.065Z,12.33
2023-04-07T18:10:55.723Z,12.37
2023-04-07T18:13:23.935Z,12.38
2023-04-07T18:15:52.100Z,12.33
2023-04-07T18:18:21.208Z,12.28
2023-04-07T18:20:50.720Z,12.22
2023-04-07T18:23:18.891Z,12.20
2023-04-07T18:25:49.460Z,12.18
2023-04-07T18:28:18.557Z,12.15
2023-04-07T18:30:46.994Z,12.18
2023-04-07T18:33:15.437Z,12.17
2023-04-07T18:35:43.597Z,12.14
2023-04-07T18:38:11.871Z,12.14
2023-04-07T18:40:40.019Z,12.08
2023-04-07T18:43:09.654Z,12.08
2023-04-07T18:45:37.754Z,12.13
2023-04-07T18:48:06.152Z,12.05
2023-04-07T18:50:34.391Z,12.09
2023-04-07T18:53:03.040Z,12.10
2023-04-07T18:55:31.259Z,12.07
2023-04-07T18:57:59.451Z,12.02
2023-04-07T19:00:28.962Z,12.01
2023-04-07T19:03:00.722Z,11.99
2023-04-07T19:05:29.093Z,11.99
2023-04-07T19:07:57.220Z,11.93
2023-04-07T19:10:25.908Z,11.91
2023-04-07T19:12:54.107Z,11.90
2023-04-07T19:15:22.377Z,11.85
2023-04-07T19:17:52.130Z,11.91
2023-04-07T19:20:33.741Z,11.88
2023-04-07T19:23:03.411Z,11.91
2023-04-07T19:25:31.856Z,11.90
2023-04-07T19:28:00.250Z,11.89
2023-04-07T19:30:28.537Z,11.90
2023-04-07T19:32:58.192Z,11.93
2023-04-07T19:35:27.048Z,11.92
2023-04-07T19:37:55.128Z,11.92
2023-04-07T19:40:23.580Z,11.94
2023-04-07T19:42:51.732Z,11.91
2023-04-07T19:45:19.850Z,11.89
2023-04-07T19:47:48.340Z,11.86
2023-04-07T19:50:18.081Z,11.85
2023-04-07T19:52:47.332Z,11.82
2023-04-07T19:55:15.919Z,11.80
2023-04-07T19:57:43.994Z,11.76
2023-04-07T20:00:13.183Z,11.77
2023-04-07T20:02:50.933Z,11.80
2023-04-07T20:05:20.903Z,11.84
2023-04-07T20:07:48.933Z,11.81
2023-04-07T20:10:17.156Z,11.76
2023-04-07T20:12:45.780Z,11.75
2023-04-07T20:15:14.015Z,11.77
2023-04-07T20:17:42.672Z,11.78
2023-04-07T20:20:12.967Z,11.78
2023-04-07T20:22:42.422Z,11.79
2023-04-07T20:25:10.939Z,11.76
2023-04-07T20:27:39.848Z,11.76
2023-04-07T20:30:09.372Z,11.74
2023-04-07T20:32:37.531Z,11.73
2023-04-07T20:35:06.873Z,11.76
2023-04-07T20:37:35.068Z,11.77
2023-04-07T20:40:04.919Z,11.73
2023-04-07T20:42:33.056Z,11.66
2023-04-07T20:45:03.745Z,11.65
2023-04-07T20:47:36.666Z,11.68
2023-04-07T20:50:05.671Z,11.69
2023-04-07T20:52:35.625Z,11.66
2023-04-07T20:55:05.957Z,11.64
2023-04-07T20:57:34.155Z,11.64
2023-04-07T21:00:02.572Z,11.62
2023-04-07T21:02:31.805Z,11.62
2023-04-07T21:05:00.136Z,11.59
2023-04-07T21:07:28.265Z,11.61
2023-04-07T21:09:56.329Z,11.62
2023-04-07T21:12:25.760Z,11.63
2023-04-07T21:14:53.912Z,11.65
2023-04-07T21:17:22.032Z,11.63
2023-04-07T21:19:50.082Z,11.64
2023-04-07T21:22:18.210Z,11.65
2023-04-07T21:24:46.232Z,11.69
2023-04-07T21:27:14.324Z,11.67
2023-04-07T21:29:43.648Z,11.69
2023-04-07T21:32:12.234Z,11.67
2023-04-07T21:34:40.557Z,11.74
2023-04-07T21:37:09.081Z,11.69
2023-04-07T21:39:37.297Z,11.71
2023-04-07T21:42:05.412Z,11.69
2023-04-07T21:44:33.473Z,11.76
2023-04-07T21:47:03.493Z,11.73
2023-04-07T21:49:31.863Z,11.66
2023-04-07T21:52:00.202Z,11.68
2023-04-07T21:54:28.273Z,11.67
2023-04-07T21:56:57.108Z,11.68
2023-04-07T21:59:25.177Z,11.68
2023-04-07T22:01:53.612Z,11.68
2023-04-07T22:04:23.270Z,11.68
2023-04-07T22:06:51.488Z,11.68
2023-04-07T22:09:19.597Z,11.69
2023-04-07T22:11:47.721Z,11.71
2023-04-07T22:14:15.786Z,11.75
2023-04-07T22:16:43.918Z,11.77
2023-04-07T22:19:11.942Z,11.75
2023-04-07T22:21:41.407Z,11.74
2023-04-07T22:24:09.519Z,11.76
2023-04-07T22:26:38.561Z,11.81
2023-04-07T22:29:06.932Z,11.73
2023-04-07T22:31:35.087Z,11.68
2023-04-07T22:34:03.603Z,11.71
2023-04-07T22:36:33.498Z,11.66
2023-04-07T22:39:03.392Z,11.67
2023-04-07T22:41:31.569Z,11.64
2023-04-07T22:43:59.680Z,11.63
2023-04-07T22:46:27.893Z,11.63
2023-04-07T22:48:56.387Z,11.64
2023-04-07T22:51:24.596Z,11.62
2023-04-07T22:53:52.651Z,11.61
2023-04-07T22:56:22.098Z,11.58
2023-04-07T22:58:50.658Z,11.59
2023-04-07T23:01:19.080Z,11.59
2023-04-07T23:03:48.212Z,11.63
2023-04-07T23:06:16.579Z,11.58
2023-04-07T23:08:45.843Z,11.57
2023-04-07T23:11:15.645Z,11.58
2023-04-07T23:13:45.262Z,11.56
2023-04-07T23:16:13.805Z,11.54
2023-04-07T23:18:43.244Z,11.55
2023-04-07T23:21:11.993Z,11.58
2023-04-07T23:23:40.142Z,11.57
2023-04-07T23:26:08.197Z,11.57
2023-04-07T23:28:36.595Z,11.57
2023-04-07T23:31:06.651Z,11.58
2023-04-07T23:33:35.060Z,11.60
2023-04-07T23:36:03.273Z,11.60
2023-04-07T23:38:31.703Z,11.62
2023-04-07T23:40:59.808Z,11.62
2023-04-07T23:43:27.815Z,11.66
2023-04-07T23:45:56.576Z,11.68
2023-04-07T23:48:26.463Z,11.67
2023-04-07T23:50:54.735Z,11.67
2023-04-07T23:53:22.792Z,11.70
2023-04-07T23:55:51.973Z,11.68
2023-04-07T23:58:20.086Z,11.66
